createdAt,value
2022-08-28T00:01:22.288Z,24.06
2022-08-28T00:03:55.012Z,24.04
2022-08-28T00:06:27.454Z,24.01
2022-08-28T00:08:59.857Z,23.97
2022-08-28T00:11:32.046Z,23.92
2022-08-28T00:14:08.286Z,23.88
2022-08-28T00:16:40.358Z,23.83
2022-08-28T00:19:12.641Z,23.81
2022-08-28T00:21:45.858Z,23.77
2022-08-28T00:24:18.345Z,23.72
2022-08-28T00:27:08.233Z,23.66
2022-08-28T00:29:41.827Z,23.60
2022-08-28T00:32:14.021Z,23.52
2022-08-28T00:34:46.454Z,23.48
2022-08-28T00:37:18.896Z,23.40
2022-08-28T00:39:51.147Z,23.35
2022-08-28T00:42:24.002Z,23.30
2022-08-28T00:44:56.501Z,23.27
2022-08-28T00:47:29.041Z,23.25
2022-08-28T00:50:01.109Z,23.23
2022-08-28T00:52:33.603Z,23.21
2022-08-28T00:55:08.799Z,23.19
2022-08-28T00:57:45.077Z,23.15
2022-08-28T01:00:22.939Z,23.11
2022-08-28T01:02:55.406Z,23.10
2022-08-28T01:05:29.084Z,23.09
2022-08-28T01:08:01.153Z,23.07
2022-08-28T01:10:35.308Z,23.08
2022-08-28T01:13:07.945Z,23.08
2022-08-28T01:15:42.224Z,23.09
2022-08-28T01:18:16.545Z,23.09
2022-08-28T01:21:22.066Z,23.08
2022-08-28T01:23:59.781Z,23.07
2022-08-28T01:26:32.943Z,23.05
2022-08-28T01:29:07.337Z,23.03
2022-08-28T01:31:41.063Z,23.01
2022-08-28T01:34:14.337Z,22.98
2022-08-28T01:36:47.728Z,22.96
2022-08-28T01:39:22.713Z,22.95
2022-08-28T01:41:56.008Z,22.94
2022-08-28T01:44:29.122Z,22.93
2022-08-28T01:47:01.162Z,22.91
2022-08-28T01:49:33.418Z,22.90
2022-08-28T01:52:05.945Z,22.87
2022-08-28T01:54:38.519Z,22.84
2022-08-28T01:57:11.116Z,22.82
2022-08-28T01:59:43.305Z,22.78
2022-08-28T02:02:16.198Z,22.74
2022-08-28T02:04:48.504Z,22.70
2022-08-28T02:07:20.652Z,22.66
2022-08-28T02:09:52.806Z,22.63
2022-08-28T02:12:25.304Z,22.58
2022-08-28T02:14:57.438Z,22.53
2022-08-28T02:17:29.597Z,22.48
2022-08-28T02:20:02.100Z,22.45
2022-08-28T02:22:34.274Z,22.45
2022-08-28T02:25:07.798Z,22.43
2022-08-28T02:27:40.733Z,22.43
2022-08-28T02:30:15.844Z,22.41
2022-08-28T02:32:47.915Z,22.43
2022-08-28T02:35:22.160Z,22.44
2022-08-28T02:37:54.494Z,22.44
2022-08-28T02:40:28.183Z,22.46
2022-08-28T02:43:00.471Z,22.47
2022-08-28T02:45:32.865Z,22.48
2022-08-28T02:48:05.453Z,22.52
2022-08-28T02:50:39.383Z,22.55
2022-08-28T02:53:13.267Z,22.60
2022-08-28T02:55:45.521Z,22.63
2022-08-28T02:58:17.949Z,22.66
2022-08-28T03:00:51.326Z,22.69
2022-08-28T03:03:23.623Z,22.71
2022-08-28T03:05:55.774Z,22.75
2022-08-28T03:08:29.187Z,22.77
2022-08-28T03:11:02.153Z,22.81
2022-08-28T03:13:35.119Z,22.85
2022-08-28T03:16:08.389Z,22.86
2022-08-28T03:18:40.635Z,22.89
2022-08-28T03:21:13.136Z,22.89
2022-08-28T03:23:45.358Z,22.91
2022-08-28T03:26:20.844Z,22.93
2022-08-28T03:28:56.571Z,22.94
2022-08-28T03:31:33.308Z,22.95
2022-08-28T03:34:06.733Z,22.98
2022-08-28T03:39:09.540Z,23.03
2022-08-28T03:41:41.877Z,23.04
2022-08-28T03:44:14.019Z,23.07
2022-08-28T03:46:46.031Z,23.09
2022-08-28T03:49:19.973Z,23.13
2022-08-28T03:51:53.211Z,23.17
2022-08-28T03:54:25.783Z,23.19
2022-08-28T03:56:57.816Z,23.23
2022-08-28T03:59:33.507Z,23.25
2022-08-28T04:02:04.375Z,23.32
2022-08-28T04:04:36.609Z,23.35
2022-08-28T04:07:08.983Z,23.39
2022-08-28T04:09:41.200Z,23.45
2022-08-28T04:12:14.846Z,23.48
2022-08-28T04:14:47.199Z,23.52
2022-08-28T04:17:19.350Z,23.57
2022-08-28T04:19:56.980Z,23.63
2022-08-28T04:22:31.030Z,23.69
2022-08-28T04:25:03.323Z,23.76
2022-08-28T04:27:36.256Z,23.84
2022-08-28T04:30:10.390Z,23.91
2022-08-28T04:32:43.161Z,23.99
2022-08-28T04:35:18.514Z,24.08
2022-08-28T04:37:51.100Z,24.16
2022-08-28T04:40:23.382Z,24.23
2022-08-28T04:42:55.387Z,24.31
2022-08-28T04:45:27.595Z,24.38
2022-08-28T04:48:00.194Z,24.45
2022-08-28T04:50:34.458Z,24.52
2022-08-28T04:53:08.492Z,24.61
2022-08-28T04:55:54.052Z,24.68
2022-08-28T04:58:24.589Z,24.74
2022-08-28T05:00:57.038Z,24.82
2022-08-28T05:03:29.411Z,24.88
2022-08-28T05:06:03.050Z,24.96
2022-08-28T05:08:35.818Z,24.98
2022-08-28T05:11:24.558Z,25.02
2022-08-28T05:13:51.614Z,25.10
2022-08-28T05:16:25.859Z,25.14
2022-08-28T05:19:00.829Z,25.22
2022-08-28T05:21:32.998Z,25.33
2022-08-28T05:24:05.940Z,25.44
2022-08-28T05:26:40.084Z,25.51
2022-08-28T05:29:13.468Z,25.58
2022-08-28T05:31:48.015Z,25.68
2022-08-28T05:34:21.003Z,25.77
2022-08-28T05:36:53.196Z,25.83
2022-08-28T05:39:25.337Z,25.91
2022-08-28T05:41:57.584Z,25.98
2022-08-28T05:44:29.993Z,26.03
2022-08-28T05:47:02.975Z,26.04
2022-08-28T05:49:35.108Z,26.08
2022-08-28T05:52:07.403Z,26.08
2022-08-28T05:54:40.633Z,26.06
2022-08-28T05:57:12.814Z,26.02
2022-08-28T05:59:45.156Z,26.00
2022-08-28T06:02:17.270Z,25.99
2022-08-28T06:04:50.633Z,25.96
2022-08-28T06:07:23.324Z,25.91
2022-08-28T06:09:55.483Z,25.82
2022-08-28T06:12:27.830Z,25.74
2022-08-28T06:15:00.656Z,25.65
2022-08-28T06:17:32.973Z,25.61
2022-08-28T06:20:05.932Z,25.63
2022-08-28T06:22:38.509Z,25.66
2022-08-28T06:25:12.703Z,25.74
2022-08-28T06:27:45.191Z,25.81
2022-08-28T06:30:17.457Z,26.09
2022-08-28T06:32:49.907Z,26.68
2022-08-28T06:35:23.594Z,27.38
2022-08-28T06:37:55.847Z,27.93
2022-08-28T06:40:28.930Z,28.31
2022-08-28T06:43:01.530Z,28.92
2022-08-28T06:45:33.927Z,29.39
2022-08-28T06:48:06.135Z,30.15
2022-08-28T06:50:43.844Z,31.29
2022-08-28T06:53:18.951Z,32.23
2022-08-28T06:56:09.100Z,32.54
2022-08-28T06:58:49.908Z,32.98
2022-08-28T07:01:22.675Z,33.58
2022-08-28T07:03:57.391Z,34.09
2022-08-28T07:06:34.920Z,34.86
2022-08-28T07:09:09.102Z,35.82
2022-08-28T07:11:40.753Z,36.07
2022-08-28T07:14:12.652Z,36.60
2022-08-28T07:16:44.972Z,35.11
2022-08-28T07:19:18.421Z,34.49
2022-08-28T07:21:50.973Z,33.70
2022-08-28T07:24:23.517Z,32.94
2022-08-28T07:26:56.360Z,32.25
2022-08-28T07:29:28.426Z,31.65
2022-08-28T07:32:00.622Z,31.13
2022-08-28T07:34:33.401Z,30.78
2022-08-28T07:37:11.066Z,30.53
2022-08-28T07:39:41.507Z,30.38
2022-08-28T07:42:15.474Z,30.27
2022-08-28T07:44:50.567Z,30.18
2022-08-28T07:47:23.801Z,30.12
2022-08-28T07:49:56.269Z,30.08
2022-08-28T07:52:29.545Z,30.03
2022-08-28T07:55:01.928Z,30.08
2022-08-28T07:57:34.281Z,30.11
2022-08-28T08:00:07.835Z,30.06
2022-08-28T08:02:43.326Z,29.95
2022-08-28T08:05:15.657Z,29.84
2022-08-28T08:07:48.349Z,29.87
2022-08-28T08:10:20.987Z,29.93
2022-08-28T08:12:53.130Z,29.98
2022-08-28T08:15:29.451Z,30.10
2022-08-28T08:18:01.891Z,30.15
2022-08-28T08:20:34.296Z,30.20
2022-08-28T08:23:06.747Z,30.22
2022-08-28T08:25:39.241Z,30.25
2022-08-28T08:28:11.391Z,30.24
2022-08-28T08:30:43.857Z,30.27
2022-08-28T08:33:16.311Z,30.28
2022-08-28T08:35:49.181Z,30.34
2022-08-28T08:38:21.324Z,30.46
2022-08-28T08:40:54.078Z,30.63
2022-08-28T08:43:27.670Z,30.72
2022-08-28T08:45:59.947Z,30.81
2022-08-28T08:48:35.390Z,30.85
2022-08-28T08:51:10.667Z,30.87
2022-08-28T08:53:58.970Z,30.96
2022-08-28T08:56:34.896Z,31.06
2022-08-28T08:59:10.102Z,31.16
2022-08-28T09:01:52.682Z,31.17
2022-08-28T09:04:34.624Z,31.16
2022-08-28T09:07:12.508Z,31.12
2022-08-28T09:09:47.784Z,31.06
2022-08-28T09:12:31.861Z,31.06
2022-08-28T09:15:28.543Z,31.13
2022-08-28T09:18:15.556Z,31.26
2022-08-28T09:20:56.554Z,31.45
2022-08-28T09:23:30.276Z,31.60
2022-08-28T09:26:05.933Z,31.68
2022-08-28T09:28:41.759Z,31.66
2022-08-28T09:31:19.990Z,31.67
2022-08-28T09:33:54.089Z,31.89
2022-08-28T09:36:31.681Z,31.69
2022-08-28T09:39:16.179Z,31.64
2022-08-28T09:42:11.630Z,31.67
2022-08-28T09:45:09.189Z,31.68
2022-08-28T09:47:49.003Z,31.69
2022-08-28T09:50:29.935Z,31.69
2022-08-28T09:53:14.674Z,31.71
2022-08-28T09:55:52.679Z,31.73
2022-08-28T09:58:30.884Z,31.82
2022-08-28T10:01:28.534Z,31.85
2022-08-28T10:04:19.778Z,31.87
2022-08-28T10:06:58.021Z,31.94
2022-08-28T10:09:48.080Z,32.00
2022-08-28T10:12:35.202Z,32.05
2022-08-28T10:15:38.061Z,32.07
2022-08-28T10:18:30.585Z,32.09
2022-08-28T10:21:23.515Z,32.17
2022-08-28T10:23:58.914Z,32.23
2022-08-28T10:26:36.957Z,32.27
2022-08-28T10:29:20.994Z,32.30
2022-08-28T10:31:56.052Z,32.35
2022-08-28T10:34:52.053Z,32.36
2022-08-28T10:37:46.400Z,32.41
2022-08-28T10:40:26.039Z,32.50
2022-08-28T10:43:13.671Z,32.70
2022-08-28T10:45:45.998Z,32.81
2022-08-28T10:48:30.526Z,33.08
2022-08-28T10:51:05.873Z,33.31
2022-08-28T10:53:40.860Z,33.53
2022-08-28T10:56:28.731Z,33.71
2022-08-28T10:59:01.449Z,33.83
2022-08-28T11:01:40.063Z,33.98
2022-08-28T11:04:25.505Z,34.11
2022-08-28T11:06:58.184Z,34.26
2022-08-28T11:09:35.953Z,34.58
2022-08-28T11:12:22.623Z,34.92
2022-08-28T11:14:55.243Z,35.44
2022-08-28T11:17:30.659Z,35.85
2022-08-28T11:20:24.484Z,36.23
2022-08-28T11:23:17.567Z,36.44
2022-08-28T11:25:57.809Z,36.71
2022-08-28T11:28:42.921Z,36.83
2022-08-28T11:31:19.195Z,36.66
2022-08-28T11:33:55.168Z,36.36
2022-08-28T11:36:32.508Z,36.15
2022-08-28T11:39:07.653Z,36.08
2022-08-28T11:41:42.352Z,36.16
2022-08-28T11:44:23.524Z,36.19
2022-08-28T11:46:59.005Z,36.20
2022-08-28T11:49:37.079Z,36.20
2022-08-28T11:52:34.439Z,36.04
2022-08-28T11:55:20.207Z,35.77
2022-08-28T12:01:08.084Z,34.98
2022-08-28T12:03:46.183Z,34.66
2022-08-28T12:06:21.633Z,34.43
2022-08-28T12:08:59.510Z,34.28
2022-08-28T12:11:46.571Z,34.18
2022-08-28T12:14:30.913Z,34.05
2022-08-28T12:17:05.967Z,34.03
2022-08-28T12:19:52.440Z,34.11
2022-08-28T12:22:23.625Z,34.10
2022-08-28T12:25:01.493Z,34.16
2022-08-28T12:27:35.333Z,34.25
2022-08-28T12:30:08.304Z,34.41
2022-08-28T12:32:49.334Z,34.67
2022-08-28T12:35:23.862Z,35.23
2022-08-28T12:37:59.138Z,36.11
2022-08-28T12:40:40.821Z,36.85
2022-08-28T12:43:15.186Z,37.50
2022-08-28T12:45:53.802Z,38.13
2022-08-28T12:48:29.261Z,38.51
2022-08-28T12:51:04.128Z,38.62
2022-08-28T12:53:47.965Z,38.77
2022-08-28T12:56:22.077Z,38.66
2022-08-28T12:58:53.318Z,39.06
2022-08-28T13:01:31.330Z,39.70
2022-08-28T13:04:08.281Z,38.93
2022-08-28T13:06:42.463Z,38.53
2022-08-28T13:09:23.646Z,37.96
2022-08-28T13:11:56.149Z,37.35
2022-08-28T13:14:46.531Z,36.83
2022-08-28T13:17:38.250Z,36.40
2022-08-28T13:20:10.920Z,36.03
2022-08-28T13:22:50.641Z,35.90
2022-08-28T13:25:18.134Z,35.90
2022-08-28T13:27:58.576Z,36.37
2022-08-28T13:30:33.916Z,36.08
2022-08-28T13:33:21.134Z,36.13
2022-08-28T13:35:55.183Z,36.16
2022-08-28T13:38:27.285Z,36.28
2022-08-28T13:41:02.292Z,36.75
2022-08-28T13:43:46.432Z,37.04
2022-08-28T13:46:20.458Z,37.14
2022-08-28T13:48:52.594Z,37.21
2022-08-28T13:51:26.207Z,37.48
2022-08-28T13:53:59.088Z,37.95
2022-08-28T13:56:32.986Z,38.40
2022-08-28T13:59:05.812Z,39.25
2022-08-28T14:01:56.413Z,39.35
2022-08-28T14:04:28.829Z,39.02
2022-08-28T14:07:01.214Z,38.49
2022-08-28T14:09:33.638Z,37.93
2022-08-28T14:12:08.332Z,37.44
2022-08-28T14:14:41.137Z,37.05
2022-08-28T14:17:13.460Z,36.81
2022-08-28T14:19:45.977Z,36.61
2022-08-28T14:22:18.633Z,36.50
2022-08-28T14:24:50.610Z,36.47
2022-08-28T14:27:22.891Z,36.59
2022-08-28T14:29:55.485Z,36.82
2022-08-28T14:32:28.246Z,36.83
2022-08-28T14:35:00.848Z,36.78
2022-08-28T14:37:33.987Z,36.77
2022-08-28T14:40:07.491Z,36.55
2022-08-28T14:42:41.810Z,36.33
2022-08-28T14:45:13.890Z,36.18
2022-08-28T14:47:46.065Z,36.58
2022-08-28T14:50:18.393Z,36.86
2022-08-28T14:52:50.790Z,36.88
2022-08-28T14:55:22.963Z,36.64
2022-08-28T14:57:55.111Z,36.33
2022-08-28T15:00:27.504Z,35.96
2022-08-28T15:03:00.037Z,35.57
2022-08-28T15:05:32.219Z,35.14
2022-08-28T15:08:06.647Z,34.75
2022-08-28T15:10:43.969Z,34.33
2022-08-28T15:13:16.102Z,33.92
2022-08-28T15:15:48.317Z,33.49
2022-08-28T15:18:21.008Z,33.15
2022-08-28T15:20:53.353Z,32.87
2022-08-28T15:23:25.549Z,32.56
2022-08-28T15:25:57.720Z,32.33
2022-08-28T15:28:30.048Z,32.11
2022-08-28T15:31:02.160Z,31.88
2022-08-28T15:33:34.395Z,31.69
2022-08-28T15:36:06.606Z,31.50
2022-08-28T15:38:56.632Z,31.33
2022-08-28T15:41:31.988Z,31.20
2022-08-28T15:44:05.816Z,31.05
2022-08-28T15:46:37.947Z,30.92
2022-08-28T15:49:10.533Z,30.78
2022-08-28T15:51:42.636Z,30.59
2022-08-28T15:54:14.887Z,30.48
2022-08-28T15:56:48.017Z,30.36
2022-08-28T15:59:20.696Z,30.22
2022-08-28T16:01:54.565Z,30.34
2022-08-28T16:04:26.827Z,30.02
2022-08-28T16:07:01.322Z,29.93
2022-08-28T16:09:33.514Z,29.85
2022-08-28T16:12:06.901Z,29.78
2022-08-28T16:14:39.037Z,29.70
2022-08-28T16:17:14.118Z,29.62
2022-08-28T16:19:46.324Z,29.60
2022-08-28T16:22:19.278Z,29.57
2022-08-28T16:24:51.503Z,29.58
2022-08-28T16:27:23.977Z,29.54
2022-08-28T16:29:56.034Z,29.52
2022-08-28T16:32:28.833Z,29.49
2022-08-28T16:35:02.690Z,29.46
2022-08-28T16:37:39.757Z,29.42
2022-08-28T16:40:09.823Z,29.36
2022-08-28T16:42:51.764Z,29.28
2022-08-28T16:45:17.892Z,29.19
2022-08-28T16:47:50.819Z,29.07
2022-08-28T16:50:22.941Z,28.98
2022-08-28T16:52:55.239Z,28.87
2022-08-28T16:55:27.870Z,28.74
2022-08-28T16:58:00.427Z,28.63
2022-08-28T17:00:33.780Z,28.54
2022-08-28T17:03:05.897Z,28.47
2022-08-28T17:05:40.511Z,28.35
2022-08-28T17:08:15.054Z,28.31
2022-08-28T17:10:47.492Z,28.30
2022-08-28T17:13:19.665Z,28.29
2022-08-28T17:15:52.690Z,28.27
2022-08-28T17:18:25.069Z,28.30
2022-08-28T17:21:14.827Z,28.28
2022-08-28T17:23:46.924Z,28.27
2022-08-28T17:26:20.032Z,28.26
2022-08-28T17:28:52.379Z,28.26
2022-08-28T17:31:25.063Z,28.24
2022-08-28T17:33:57.505Z,28.26
2022-08-28T17:36:33.909Z,28.18
2022-08-28T17:39:07.459Z,28.16
2022-08-28T17:41:39.820Z,28.12
2022-08-28T17:44:13.832Z,28.07
2022-08-28T17:46:46.757Z,28.03
2022-08-28T17:49:19.192Z,28.07
2022-08-28T17:51:51.753Z,28.06
2022-08-28T17:54:25.215Z,28.08
2022-08-28T17:56:58.337Z,28.06
2022-08-28T17:59:30.708Z,28.06
2022-08-28T18:02:03.604Z,28.06
2022-08-28T18:04:37.821Z,28.03
2022-08-28T18:07:10.430Z,28.05
2022-08-28T18:09:42.760Z,28.06
2022-08-28T18:12:15.636Z,28.03
2022-08-28T18:14:47.922Z,27.99
2022-08-28T18:17:21.050Z,27.96
2022-08-28T18:19:53.378Z,27.90
2022-08-28T18:22:29.609Z,27.84
2022-08-28T18:25:05.446Z,27.80
2022-08-28T18:27:37.779Z,27.76
2022-08-28T18:30:11.224Z,27.73
2022-08-28T18:32:43.574Z,27.69
2022-08-28T18:35:16.441Z,27.68
2022-08-28T18:37:49.024Z,27.71
2022-08-28T18:40:22.324Z,27.71
2022-08-28T18:42:54.832Z,27.85
2022-08-28T18:45:27.060Z,27.66
2022-08-28T18:48:00.847Z,27.61
2022-08-28T18:50:33.513Z,27.58
2022-08-28T18:53:07.183Z,27.57
2022-08-28T18:55:39.194Z,27.54
2022-08-28T18:58:15.199Z,27.52
2022-08-28T19:00:46.344Z,27.47
2022-08-28T19:03:21.868Z,27.44
2022-08-28T19:05:55.128Z,27.42
2022-08-28T19:08:28.119Z,27.43
2022-08-28T19:11:01.510Z,27.43
2022-08-28T19:13:33.844Z,27.47
2022-08-28T19:16:07.532Z,27.49
2022-08-28T19:18:39.914Z,27.57
2022-08-28T19:21:16.478Z,27.59
2022-08-28T19:23:55.385Z,27.62
2022-08-28T19:26:22.478Z,27.65
2022-08-28T19:28:55.591Z,27.62
2022-08-28T19:31:28.290Z,27.64
2022-08-28T19:34:00.443Z,27.59
2022-08-28T19:36:32.921Z,27.55
2022-08-28T19:39:05.934Z,27.47
2022-08-28T19:41:38.841Z,27.46
2022-08-28T19:44:11.791Z,27.42
2022-08-28T19:46:44.108Z,27.38
2022-08-28T19:49:16.488Z,27.35
2022-08-28T19:51:48.549Z,27.31
2022-08-28T19:54:21.917Z,27.31
2022-08-28T19:56:54.064Z,27.28
2022-08-28T19:59:27.209Z,27.25
2022-08-28T20:01:59.294Z,27.21
2022-08-28T20:04:32.731Z,27.19
2022-08-28T20:07:05.255Z,27.12
2022-08-28T20:09:37.655Z,27.11
2022-08-28T20:12:09.859Z,27.08
2022-08-28T20:14:42.664Z,27.02
2022-08-28T20:17:15.009Z,27.00
2022-08-28T20:19:47.873Z,26.94
2022-08-28T20:22:19.978Z,26.89
2022-08-28T20:24:52.013Z,26.83
2022-08-28T20:27:24.101Z,26.82
2022-08-28T20:29:56.219Z,26.77
2022-08-28T20:32:28.477Z,26.73
2022-08-28T20:35:00.884Z,26.72
2022-08-28T20:37:41.035Z,26.68
2022-08-28T20:40:10.885Z,26.65
2022-08-28T20:42:42.968Z,26.61
2022-08-28T20:45:16.599Z,26.59
2022-08-28T20:47:48.828Z,26.56
2022-08-28T20:50:21.116Z,26.51
2022-08-28T20:52:53.215Z,26.48
2022-08-28T20:55:25.368Z,26.42
2022-08-28T20:57:57.998Z,26.38
2022-08-28T21:00:30.324Z,26.34
2022-08-28T21:03:02.419Z,26.28
2022-08-28T21:05:34.626Z,26.24
2022-08-28T21:08:08.817Z,26.17
2022-08-28T21:10:44.953Z,26.16
2022-08-28T21:13:16.248Z,26.11
2022-08-28T21:15:48.190Z,26.23
2022-08-28T21:18:20.359Z,26.01
2022-08-28T21:20:52.451Z,25.97
2022-08-28T21:23:24.510Z,25.91
2022-08-28T21:25:56.662Z,25.86
2022-08-28T21:28:29.357Z,25.82
2022-08-28T21:31:02.153Z,25.76
2022-08-28T21:33:34.185Z,25.74
2022-08-28T21:36:14.771Z,25.70
2022-08-28T21:38:47.429Z,25.65
2022-08-28T21:41:19.718Z,25.55
2022-08-28T21:43:52.292Z,25.48
2022-08-28T21:46:24.585Z,25.39
2022-08-28T21:48:56.651Z,25.32
2022-08-28T21:51:28.899Z,25.28
2022-08-28T21:54:02.064Z,25.18
2022-08-28T21:56:34.138Z,25.11
2022-08-28T21:59:06.752Z,24.98
2022-08-28T22:01:38.817Z,24.88
2022-08-28T22:04:11.299Z,24.79
2022-08-28T22:06:43.353Z,24.74
2022-08-28T22:09:15.413Z,24.66
2022-08-28T22:11:47.545Z,24.57
2022-08-28T22:14:19.587Z,24.48
2022-08-28T22:16:51.824Z,24.39
2022-08-28T22:19:24.444Z,24.34
2022-08-28T22:22:14.999Z,24.30
2022-08-28T22:24:47.065Z,24.27
2022-08-28T22:27:19.233Z,24.30
2022-08-28T22:29:51.791Z,24.33
2022-08-28T22:32:25.550Z,24.37
2022-08-28T22:34:57.819Z,24.38
2022-08-28T22:37:29.859Z,24.36
2022-08-28T22:40:01.947Z,24.32
2022-08-28T22:42:35.545Z,24.29
2022-08-28T22:45:09.789Z,24.23
2022-08-28T22:47:41.787Z,24.16
2022-08-28T22:50:13.784Z,24.06
2022-08-28T22:52:50.554Z,23.97
2022-08-28T22:55:23.217Z,23.90
2022-08-28T22:57:55.681Z,23.79
2022-08-28T23:00:28.964Z,23.74
2022-08-28T23:03:02.818Z,23.68
2022-08-28T23:05:35.345Z,23.61
2022-08-28T23:08:07.502Z,23.50
2022-08-28T23:10:58.021Z,23.39
2022-08-28T23:13:14.372Z,23.29
2022-08-28T23:15:48.472Z,23.21
2022-08-28T23:18:21.235Z,23.14
2022-08-28T23:20:54.358Z,23.08
2022-08-28T23:23:26.481Z,23.02
2022-08-28T23:25:59.017Z,22.96
2022-08-28T23:28:30.966Z,22.92
2022-08-28T23:31:02.979Z,22.86
2022-08-28T23:33:35.019Z,22.80
2022-08-28T23:36:08.101Z,22.81
2022-08-28T23:38:43.099Z,22.81
2022-08-28T23:41:15.467Z,22.80
2022-08-28T23:43:47.813Z,22.77
2022-08-28T23:46:21.230Z,22.73
2022-08-28T23:48:53.691Z,22.69
2022-08-28T23:51:25.723Z,22.64
2022-08-28T23:53:58.638Z,22.61
2022-08-28T23:56:31.227Z,22.58
2022-08-28T23:59:05.462Z,22.53
